Time;durP1;ratioP1;P1;durP2;ratioP2;P2;SDS_P1;SDS_P2;PMS_P1;PMS_P2;Temp;Humidity;BMP_temperature;BMP_pressure;BME280_temperature;BME280_humidity;BME280_pressure;Samples;Min_cycle;Max_cycle;Signal;HPM_P1;HPM_P2
2022/04/16 00:00:56;;;;;;;43.23;16.83;;;;;;;13.33;54.37;94687.91;4973169;28;20208;-85
2022/04/16 00:03:23;;;;;;;28.40;14.97;;;;;;;13.18;55.00;94674.59;4977260;28;20211;-86
2022/04/16 00:05:51;;;;;;;28.70;14.13;;;;;;;13.21;54.71;94679.34;4969824;28;20228;-85
2022/04/16 00:08:20;;;;;;;31.50;12.40;;;;;;;12.98;54.85;94677.59;4972385;28;20663;-86
2022/04/16 00:10:47;;;;;;;33.00;13.80;;;;;;;12.90;55.31;94685.00;4970645;28;20212;-85
2022/04/16 00:13:16;;;;;;;22.90;12.73;;;;;;;12.72;55.62;94678.13;4969776;28;20211;-85
2022/04/16 00:15:43;;;;;;;21.07;11.07;;;;;;;12.54;55.53;94667.81;4971740;28;20201;-84
2022/04/16 00:18:11;;;;;;;20.30;11.10;;;;;;;12.68;55.36;94686.59;4974885;28;20205;-85
2022/04/16 00:20:40;;;;;;;25.87;12.33;;;;;;;12.65;56.44;94687.06;4969492;28;20597;-86
2022/04/16 00:23:07;;;;;;;27.00;13.47;;;;;;;12.75;57.18;94688.09;4973343;28;20217;-86
2022/04/16 00:25:36;;;;;;;30.13;13.70;;;;;;;12.72;57.41;94692.97;4967608;28;20212;-83
2022/04/16 00:28:04;;;;;;;29.53;12.60;;;;;;;12.65;57.29;94677.44;4966158;28;20606;-86
2022/04/16 00:30:37;;;;;;;25.57;12.00;;;;;;;12.74;56.83;94688.31;4968230;28;20209;-87
2022/04/16 00:33:04;;;;;;;22.03;10.73;;;;;;;12.73;56.96;94676.28;4967121;28;21074;-86
2022/04/16 00:35:31;;;;;;;21.53;10.90;;;;;;;12.65;56.78;94674.81;4966173;28;20232;-87
2022/04/16 00:37:58;;;;;;;21.37;10.10;;;;;;;12.74;56.64;94672.66;4969033;28;20232;-87
2022/04/16 00:40:25;;;;;;;20.37;10.50;;;;;;;12.82;56.68;94674.91;4989283;28;20215;-87
2022/04/16 00:42:54;;;;;;;17.37;9.80;;;;;;;12.76;56.18;94673.22;4989728;28;20208;-87
2022/04/16 00:45:21;;;;;;;21.33;10.27;;;;;;;12.77;57.01;94678.22;4989593;28;20200;-89
2022/04/16 00:47:48;;;;;;;19.30;9.90;;;;;;;12.67;56.66;94669.41;4985473;28;20298;-89
2022/04/16 00:50:15;;;;;;;19.20;11.00;;;;;;;12.66;57.19;94673.00;4986469;28;20211;-87
2022/04/16 00:52:44;;;;;;;18.90;10.93;;;;;;;12.67;57.19;94675.38;4987165;28;20228;-88
2022/04/16 00:55:11;;;;;;;25.80;11.17;;;;;;;12.44;57.17;94647.53;4987601;28;20220;-86
2022/04/16 00:57:41;;;;;;;22.63;11.77;;;;;;;12.56;58.33;94668.38;4985465;28;20686;-87
2022/04/16 01:00:12;;;;;;;19.20;11.27;;;;;;;12.56;58.16;94672.78;4991073;28;20211;-86
2022/04/16 01:02:39;;;;;;;22.03;11.23;;;;;;;12.48;58.15;94671.34;4986128;28;20280;-87
2022/04/16 01:05:07;;;;;;;21.03;10.90;;;;;;;12.45;56.77;94669.19;4989671;28;20207;-87
2022/04/16 01:07:35;;;;;;;16.63;10.40;;;;;;;12.47;56.73;94669.75;4989259;28;20204;-88
2022/04/16 01:10:02;;;;;;;19.27;10.00;;;;;;;12.41;56.87;94668.84;4988130;28;20203;-86
2022/04/16 01:12:28;;;;;;;25.33;10.67;;;;;;;12.38;57.11;94681.56;4986752;28;20230;-86
2022/04/16 01:14:57;;;;;;;24.43;11.70;;;;;;;12.37;57.81;94675.56;4987283;28;20223;-86
2022/04/16 01:17:25;;;;;;;21.10;11.60;;;;;;;12.30;58.02;94666.25;4987012;28;20204;-86
2022/04/16 01:19:52;;;;;;;22.87;10.70;;;;;;;12.35;57.69;94674.97;4987270;28;20883;-86
2022/04/16 01:22:20;;;;;;;17.97;8.77;;;;;;;12.35;56.88;94677.56;4988600;28;20207;-88
2022/04/16 01:24:51;;;;;;;17.43;8.97;;;;;;;12.29;57.24;94672.50;4987273;28;20227;-88
2022/04/16 01:27:19;;;;;;;22.40;9.27;;;;;;;12.29;57.13;94669.91;4993405;28;20196;-87
2022/04/16 01:29:47;;;;;;;21.07;9.13;;;;;;;12.17;57.24;94654.28;4997499;28;20204;-88
2022/04/16 01:32:14;;;;;;;12.70;8.50;;;;;;;12.15;56.96;94663.34;5010851;28;20275;-87
2022/04/16 01:34:41;;;;;;;27.37;9.90;;;;;;;12.19;57.10;94674.88;4992511;28;20220;-88
2022/04/16 01:37:09;;;;;;;15.40;9.10;;;;;;;12.18;56.93;94668.88;4990232;28;20200;-88
2022/04/16 01:39:36;;;;;;;16.87;9.20;;;;;;;12.19;57.12;94690.50;4977257;28;20235;-87
2022/04/16 01:42:12;;;;;;;15.23;8.53;;;;;;;12.09;57.58;94678.03;4975993;28;20196;-87
2022/04/16 01:44:42;;;;;;;15.63;8.27;;;;;;;12.08;57.50;94684.28;4972160;28;20197;-85
2022/04/16 01:47:10;;;;;;;13.37;8.27;;;;;;;12.03;57.84;94676.34;4978575;28;20274;-83
2022/04/16 01:49:37;;;;;;;18.73;8.40;;;;;;;11.96;58.34;94680.88;4973634;28;20308;-83
2022/04/16 01:52:05;;;;;;;12.30;7.87;;;;;;;11.94;58.64;94677.69;4975189;28;20220;-83
2022/04/16 01:54:32;;;;;;;19.27;8.93;;;;;;;11.89;58.07;94677.56;4975547;28;20243;-83
2022/04/16 01:56:59;;;;;;;18.13;8.60;;;;;;;11.80;58.30;94676.34;4971988;28;20220;-84
2022/04/16 01:59:29;;;;;;;20.53;8.33;;;;;;;11.81;57.45;94670.09;4973960;28;20566;-83
2022/04/16 02:01:56;;;;;;;9.67;7.20;;;;;;;11.74;57.07;94659.00;4976440;28;20205;-83
2022/04/16 02:04:24;;;;;;;16.90;8.37;;;;;;;11.79;58.52;94667.72;4978068;28;20208;-84
2022/04/16 02:06:51;;;;;;;20.53;8.47;;;;;;;11.77;59.05;94663.75;4974673;28;20219;-84
2022/04/16 02:09:19;;;;;;;15.43;8.93;;;;;;;11.72;59.54;94664.41;4968653;28;20193;-85
2022/04/16 02:11:46;;;;;;;14.83;8.20;;;;;;;11.73;58.59;94673.03;4969891;28;20215;-84
2022/04/16 02:14:17;;;;;;;22.30;9.37;;;;;;;11.70;60.10;94674.28;4970836;28;20201;-84
2022/04/16 02:16:45;;;;;;;11.87;8.10;;;;;;;11.69;58.48;94677.88;4970557;28;20216;-83
2022/04/16 02:19:14;;;;;;;25.33;9.70;;;;;;;11.63;59.62;94676.13;4973432;28;20228;-83
2022/04/16 02:21:41;;;;;;;28.53;10.03;;;;;;;11.55;60.45;94671.25;4970200;28;20672;-83
2022/04/16 02:24:08;;;;;;;18.33;9.40;;;;;;;11.44;60.86;94666.81;4971026;28;20301;-83
2022/04/16 02:26:35;;;;;;;16.47;8.93;;;;;;;11.46;60.87;94671.81;4974140;28;20201;-83
2022/04/16 02:29:01;;;;;;;19.20;9.30;;;;;;;11.25;61.21;94640.09;4973507;28;20223;-81
2022/04/16 02:31:28;;;;;;;23.87;9.60;;;;;;;11.38;61.03;94665.91;4971423;28;20209;-82
2022/04/16 02:33:58;;;;;;;19.70;9.60;;;;;;;11.36;62.11;94664.56;4974515;28;20732;-82
2022/04/16 02:36:25;;;;;;;14.87;9.17;;;;;;;11.39;61.61;94670.09;4973287;28;20229;-82
2022/04/16 02:38:54;;;;;;;22.53;9.00;;;;;;;11.32;61.97;94668.59;4973203;28;20802;-81
2022/04/16 02:41:22;;;;;;;21.27;9.10;;;;;;;11.34;62.12;94664.75;4974155;28;20203;-82
2022/04/16 02:43:49;;;;;;;19.20;8.63;;;;;;;11.25;62.25;94660.09;4975633;28;20235;-82
2022/04/16 02:49:02;;;;;;;14.93;7.37;;;;;;;10.93;61.32;94651.72;4972097;28;20200;-82
2022/04/16 02:51:28;;;;;;;15.27;7.17;;;;;;;11.00;61.17;94651.63;4970659;28;20208;-82
2022/04/16 02:53:55;;;;;;;11.70;6.90;;;;;;;11.01;60.03;94650.63;4972093;28;20197;-82
2022/04/16 02:56:24;;;;;;;17.20;6.43;;;;;;;11.01;59.08;94656.63;4970755;28;20229;-83
2022/04/16 02:58:50;;;;;;;12.07;5.80;;;;;;;10.87;58.23;94657.00;4973649;28;20207;-84
2022/04/16 03:01:17;;;;;;;8.77;5.37;;;;;;;10.78;57.29;94649.50;4975988;28;20208;-84
2022/04/16 03:03:52;;;;;;;9.90;6.23;;;;;;;10.78;56.74;94659.91;4976867;28;20208;-83
2022/04/16 03:06:20;;;;;;;12.27;5.47;;;;;;;10.80;57.44;94681.28;4974829;28;20192;-84
2022/04/16 03:08:47;;;;;;;16.63;5.90;;;;;;;10.86;56.81;94682.22;4972909;28;20215;-84
2022/04/16 03:11:14;;;;;;;14.83;7.20;;;;;;;10.78;58.75;94669.50;4978492;28;20213;-83
2022/04/16 03:13:41;;;;;;;18.60;8.10;;;;;;;10.88;61.37;94680.16;4970660;28;20193;-88
2022/04/16 03:18:52;;;;;;;15.80;8.40;;;;;;;10.78;62.84;94670.31;4975460;28;20348;-86
2022/04/16 03:21:20;;;;;;;14.97;7.80;;;;;;;10.67;63.54;94660.66;4975336;28;20212;-88
2022/04/16 03:23:47;;;;;;;13.93;8.13;;;;;;;10.80;63.65;94665.69;4979882;28;20752;-86
2022/04/16 03:26:14;;;;;;;26.77;8.00;;;;;;;10.85;62.52;94674.63;4975659;28;20209;-85
2022/04/16 03:28:41;;;;;;;21.73;8.63;;;;;;;10.86;63.25;94663.22;4975347;28;20207;-84
2022/04/16 03:31:08;;;;;;;17.33;8.30;;;;;;;10.82;63.04;94679.25;4974096;28;20209;-85
2022/04/16 03:33:36;;;;;;;20.17;8.00;;;;;;;10.76;62.53;94679.34;4973224;28;20196;-85
2022/04/16 03:36:04;;;;;;;19.13;7.47;;;;;;;10.73;63.33;94682.38;4961598;28;20308;-85
2022/04/16 03:38:32;;;;;;;17.93;8.23;;;;;;;10.71;63.11;94686.97;4974346;28;20232;-85
2022/04/16 03:41:02;;;;;;;16.63;8.17;;;;;;;10.72;62.82;94706.78;4991088;28;20200;-86
2022/04/16 03:43:29;;;;;;;21.27;8.50;;;;;;;10.69;62.92;94699.41;4987634;28;20212;-86
2022/04/16 03:45:58;;;;;;;28.33;10.23;;;;;;;10.58;64.54;94703.53;4991731;28;20215;-86
2022/04/16 03:48:25;;;;;;;29.50;12.03;;;;;;;10.57;64.38;94708.94;4989990;28;20215;-86
2022/04/16 03:50:58;;;;;;;30.93;14.20;;;;;;;10.51;64.81;94713.19;4991669;28;21345;-88
2022/04/16 03:53:25;;;;;;;32.33;14.60;;;;;;;10.49;64.80;94702.22;4991768;28;20207;-88
2022/04/16 04:01:22;;;;;;;38.43;17.83;;;;;;;10.53;64.67;94713.78;4991699;28;20195;-87
2022/04/16 04:03:48;;;;;;;38.90;17.87;;;;;;;10.52;65.18;94717.38;4989576;28;21458;-86
2022/04/16 04:06:15;;;;;;;32.60;14.83;;;;;;;10.55;63.40;94726.53;4991704;28;20200;-85
2022/04/16 04:08:42;;;;;;;30.10;16.30;;;;;;;10.59;64.28;94727.72;4997616;28;20219;-85
2022/04/16 04:11:10;;;;;;;31.07;15.60;;;;;;;10.55;64.09;94734.34;4994474;28;20200;-85
2022/04/16 04:13:37;;;;;;;28.53;14.93;;;;;;;10.51;64.66;94731.38;4999052;28;20202;-85
2022/04/16 04:16:05;;;;;;;28.30;16.30;;;;;;;10.55;64.03;94732.53;4990020;28;20224;-86
2022/04/16 04:18:32;;;;;;;33.17;16.67;;;;;;;10.62;64.08;94741.06;4989330;28;20208;-84
2022/04/16 04:20:58;;;;;;;34.97;17.43;;;;;;;10.50;64.30;94716.00;4987559;28;20192;-85
2022/04/16 04:23:25;;;;;;;33.07;18.13;;;;;;;10.56;64.66;94728.16;4990278;28;20199;-86
2022/04/16 04:25:53;;;;;;;40.93;18.07;;;;;;;10.56;65.11;94728.91;4989748;28;20208;-86
2022/04/16 04:28:21;;;;;;;41.37;19.37;;;;;;;10.62;65.94;94735.84;4990849;28;20212;-86
2022/04/16 04:30:48;;;;;;;42.67;19.63;;;;;;;10.64;66.61;94725.25;4989796;28;20222;-85
2022/04/16 04:33:15;;;;;;;49.37;18.73;;;;;;;10.68;65.08;94735.00;4988057;28;20207;-87
2022/04/16 04:35:42;;;;;;;35.23;16.13;;;;;;;10.68;65.63;94726.41;4991203;28;21349;-86
2022/04/16 04:38:09;;;;;;;25.50;11.93;;;;;;;10.75;64.13;94734.94;4989823;28;20287;-86
2022/04/16 04:40:37;;;;;;;22.80;9.73;;;;;;;10.81;62.89;94732.28;4997026;28;20203;-88
2022/04/16 04:43:04;;;;;;;21.87;9.10;;;;;;;10.79;62.22;94728.31;5000151;28;20261;-89
2022/04/16 04:45:32;;;;;;;18.17;9.00;;;;;;;10.82;62.48;94726.03;4992788;28;20280;-88
2022/04/16 04:47:59;;;;;;;17.70;8.43;;;;;;;10.89;62.27;94717.38;4994065;28;20269;-88
2022/04/16 04:50:26;;;;;;;22.90;10.10;;;;;;;10.89;61.90;94707.78;4992250;28;20226;-87
2022/04/16 04:52:53;;;;;;;15.67;9.30;;;;;;;11.14;61.54;94739.66;4989051;28;20215;-88
2022/04/16 04:55:22;;;;;;;18.87;9.90;;;;;;;11.19;62.06;94744.22;4989855;28;20215;-88
2022/04/16 04:57:54;;;;;;;21.77;9.43;;;;;;;11.18;62.36;94740.03;4991045;28;20886;-88
2022/04/16 05:00:20;;;;;;;411.77;299.57;;;;;;;11.23;62.68;94747.97;4989345;28;20668;-86
2022/04/16 05:02:49;;;;;;;46.63;24.80;;;;;;;11.29;61.13;94750.50;4990116;28;20214;-87
2022/04/16 05:05:16;;;;;;;20.30;11.20;;;;;;;11.37;61.67;94755.38;4991204;28;20204;-87
2022/04/16 05:07:51;;;;;;;27.70;9.90;;;;;;;11.37;61.80;94752.78;4993261;28;20208;-88
2022/04/16 05:10:18;;;;;;;28.00;11.17;;;;;;;11.42;61.34;94754.75;4998588;28;20218;-88
2022/04/16 05:12:45;;;;;;;21.30;11.27;;;;;;;11.48;60.56;94753.06;4993275;28;20208;-72
2022/04/16 05:15:12;;;;;;;18.30;10.73;;;;;;;11.43;59.73;94753.72;4992189;28;20219;-73
2022/04/16 05:17:40;;;;;;;24.93;10.53;;;;;;;11.45;59.39;94741.28;4987892;28;20952;-73
2022/04/16 05:20:09;;;;;;;27.93;11.20;;;;;;;11.51;59.35;94743.00;4990857;28;20613;-75
2022/04/16 05:22:36;;;;;;;22.77;11.17;;;;;;;11.56;58.95;94729.31;4987152;28;20318;-73
2022/04/16 05:25:03;;;;;;;22.10;12.00;;;;;;;11.71;59.14;94742.75;4994874;28;20211;-71
2022/04/16 05:27:30;;;;;;;21.33;11.47;;;;;;;11.76;57.94;94735.88;4987526;28;20208;-72
2022/04/16 05:30:06;;;;;;;33.70;11.03;;;;;;;11.78;57.39;94735.63;4991914;28;20204;-73
2022/04/16 05:32:36;;;;;;;25.13;10.50;;;;;;;11.84;56.01;94738.16;4991848;28;20195;-72
2022/04/16 05:35:09;;;;;;;23.20;10.03;;;;;;;11.89;55.05;94729.66;4988412;28;20218;-72
2022/04/16 05:37:36;;;;;;;25.43;11.33;;;;;;;11.97;55.43;94731.16;4986609;28;20204;-73
2022/04/16 05:40:04;;;;;;;29.40;12.03;;;;;;;12.11;55.17;94735.94;4988726;28;20189;-74
2022/04/16 05:42:31;;;;;;;29.10;13.17;;;;;;;12.16;55.52;94735.25;4987094;28;20204;-74
2022/04/16 05:45:01;;;;;;;28.07;11.83;;;;;;;12.24;56.44;94743.53;4987141;28;20258;-73
2022/04/16 05:47:28;;;;;;;28.80;10.93;;;;;;;12.36;54.67;94733.09;4985073;28;20192;-72
2022/04/16 05:49:55;;;;;;;22.30;8.77;;;;;;;12.49;51.94;94743.31;4988426;28;20207;-73
2022/04/16 05:52:24;;;;;;;22.30;8.73;;;;;;;12.56;52.28;94737.97;4986009;28;20295;-73
2022/04/16 05:54:52;;;;;;;13.00;5.87;;;;;;;12.55;47.59;94739.00;4988054;28;20203;-73
2022/04/16 05:57:19;;;;;;;12.83;5.80;;;;;;;12.64;47.17;94735.03;4987467;28;20240;-73
2022/04/16 05:59:46;;;;;;;17.30;6.47;;;;;;;12.64;46.44;94732.44;4988517;28;20731;-75
2022/04/16 06:02:13;;;;;;;18.47;6.00;;;;;;;12.74;46.09;94730.81;4988618;28;20294;-73
2022/04/16 06:04:40;;;;;;;12.40;6.10;;;;;;;12.81;45.96;94730.72;4987443;28;20581;-73
2022/04/16 06:07:07;;;;;;;12.90;6.37;;;;;;;12.82;45.41;94722.63;4986380;28;20196;-73
2022/04/16 06:09:35;;;;;;;10.73;5.63;;;;;;;12.93;45.77;94729.66;4986577;28;20199;-73
2022/04/16 06:12:03;;;;;;;10.03;4.97;;;;;;;13.01;44.28;94726.69;4986632;28;20217;-73
2022/04/16 06:14:30;;;;;;;11.43;5.13;;;;;;;13.08;44.95;94731.78;4984672;28;20231;-75
2022/04/16 06:16:58;;;;;;;12.37;5.53;;;;;;;13.16;44.75;94728.06;4987446;28;20605;-73
2022/04/16 06:19:24;;;;;;;12.97;5.53;;;;;;;13.26;44.53;94734.25;4984587;28;20208;-73
2022/04/16 06:21:52;;;;;;;12.13;6.33;;;;;;;13.36;44.54;94736.28;4985428;28;20211;-73
2022/04/16 06:24:19;;;;;;;11.90;5.93;;;;;;;13.55;44.16;94735.84;4985176;28;20212;-74
2022/04/16 06:26:48;;;;;;;11.70;5.70;;;;;;;13.62;43.66;94728.66;4983027;28;20212;-74
2022/04/16 06:29:15;;;;;;;15.10;6.20;;;;;;;13.70;43.47;94729.31;4983254;28;20211;-73
2022/04/16 06:31:42;;;;;;;10.73;5.57;;;;;;;13.70;43.84;94721.47;4985948;28;20196;-72
2022/04/16 06:34:10;;;;;;;9.07;5.80;;;;;;;13.81;43.99;94725.84;4984685;28;20200;-72
2022/04/16 06:36:37;;;;;;;14.07;6.20;;;;;;;13.91;43.64;94731.25;4983699;28;20216;-76
2022/04/16 06:39:04;;;;;;;11.63;5.87;;;;;;;13.92;43.72;94725.78;4987433;28;20262;-73
2022/04/16 06:41:31;;;;;;;10.83;5.73;;;;;;;14.10;44.00;94728.16;4989540;28;20205;-74
2022/04/16 06:44:02;;;;;;;9.60;5.70;;;;;;;14.18;43.65;94726.97;4991312;28;20658;-74
2022/04/16 06:46:29;;;;;;;10.83;6.10;;;;;;;14.28;43.69;94726.34;4990263;28;20690;-73
2022/04/16 06:48:56;;;;;;;12.67;6.37;;;;;;;14.35;43.57;94722.56;4992001;28;20606;-77
2022/04/16 06:51:23;;;;;;;13.40;6.00;;;;;;;14.33;43.64;94726.44;4991875;28;20204;-87
2022/04/16 06:53:51;;;;;;;18.07;6.70;;;;;;;14.43;44.25;94724.75;4989634;28;20583;-89
2022/04/16 06:56:26;;;;;;;20.80;6.33;;;;;;;14.51;43.97;94729.59;4993233;28;20228;-88
2022/04/16 06:58:58;;;;;;;9.70;6.00;;;;;;;14.55;43.88;94724.66;4993139;28;20591;-87
2022/04/16 07:01:26;;;;;;;16.53;6.70;;;;;;;14.49;43.68;94721.19;4989563;28;21032;-85
2022/04/16 07:03:53;;;;;;;13.27;6.53;;;;;;;14.34;43.73;94707.91;4995624;28;20663;-87
2022/04/16 07:06:21;;;;;;;13.03;6.77;;;;;;;14.52;44.58;94720.69;4994912;28;20611;-86
2022/04/16 07:08:48;;;;;;;13.47;6.67;;;;;;;14.63;43.21;94704.13;4991220;28;20212;-86
2022/04/16 07:11:15;;;;;;;11.47;6.87;;;;;;;14.73;43.60;94712.09;4991427;28;20215;-86
2022/04/16 07:13:42;;;;;;;12.53;7.07;;;;;;;14.66;43.92;94708.88;4994888;28;20758;-87
2022/04/16 07:16:11;;;;;;;11.87;7.10;;;;;;;14.80;43.83;94722.41;4993966;28;20290;-87
2022/04/16 07:18:39;;;;;;;12.50;7.10;;;;;;;14.79;44.87;94707.72;4993834;28;20294;-87
2022/04/16 07:21:06;;;;;;;16.23;7.30;;;;;;;15.14;44.07;94730.94;4994948;28;20204;-88
2022/04/16 07:23:34;;;;;;;14.33;6.07;;;;;;;15.22;44.02;94720.03;4989948;28;20200;-87
2022/04/16 07:26:01;;;;;;;14.37;6.40;;;;;;;15.31;43.08;94718.56;4992114;28;20880;-88
2022/04/16 07:28:28;;;;;;;12.57;5.97;;;;;;;15.37;43.53;94722.03;4993869;28;20208;-89
2022/04/16 07:30:55;;;;;;;17.87;6.17;;;;;;;15.39;43.72;94722.56;4992447;28;20196;-86
2022/04/16 07:33:22;;;;;;;13.53;6.60;;;;;;;15.37;44.38;94714.19;4987938;28;20199;-84
2022/04/16 07:35:50;;;;;;;15.53;6.37;;;;;;;15.27;44.29;94701.75;4989725;28;20690;-83
2022/04/16 07:38:17;;;;;;;13.53;6.50;;;;;;;15.38;44.08;94707.91;4988310;28;20736;-77
2022/04/16 07:40:44;;;;;;;16.10;7.30;;;;;;;15.39;44.51;94715.50;4987008;28;20682;-80
2022/04/16 07:43:10;;;;;;;13.10;6.53;;;;;;;15.29;43.72;94710.19;4987722;28;20255;-76
2022/04/16 07:45:38;;;;;;;11.37;6.73;;;;;;;15.16;44.22;94718.38;4986589;28;20207;-82
2022/04/16 07:48:06;;;;;;;15.90;6.47;;;;;;;15.27;43.75;94713.03;4991218;28;20282;-81
2022/04/16 07:50:33;;;;;;;9.67;5.97;;;;;;;15.30;43.72;94706.50;4986568;28;20957;-85
2022/04/16 07:53:02;;;;;;;11.93;6.30;;;;;;;15.50;43.75;94704.13;4986134;28;20229;-83
2022/04/16 07:55:31;;;;;;;14.33;6.40;;;;;;;15.55;43.90;94701.59;4984738;28;20196;-83
2022/04/16 07:57:58;;;;;;;10.80;6.40;;;;;;;15.47;44.41;94704.63;4984870;28;20315;-84
2022/04/16 08:00:26;;;;;;;13.63;6.80;;;;;;;15.44;44.67;94691.22;4983335;28;21526;-82
2022/04/16 08:02:54;;;;;;;14.07;6.90;;;;;;;15.52;44.18;94696.03;4986789;28;20196;-82
2022/04/16 08:05:22;;;;;;;11.87;6.73;;;;;;;15.62;43.99;94691.69;4985256;28;20262;-81
2022/04/16 08:07:50;;;;;;;11.63;6.73;;;;;;;15.67;43.93;94693.56;4982401;28;21407;-78
2022/04/16 08:10:18;;;;;;;14.20;7.10;;;;;;;15.83;43.70;94687.41;4985796;28;20232;-82
2022/04/16 08:12:45;;;;;;;16.33;6.57;;;;;;;15.82;43.54;94691.06;4984440;28;20993;-83
2022/04/16 08:15:12;;;;;;;20.17;6.57;;;;;;;15.85;43.46;94678.25;4988790;28;20215;-83
2022/04/16 08:17:41;;;;;;;12.37;7.30;;;;;;;16.08;43.12;94686.81;4988424;28;20595;-85
2022/04/16 08:20:09;;;;;;;15.60;7.77;;;;;;;16.21;41.87;94681.16;4984749;28;20266;-84
2022/04/16 08:22:38;;;;;;;12.63;6.03;;;;;;;16.29;40.51;94681.47;4986211;28;20239;-84
2022/04/16 08:27:53;;;;;;;10.73;6.43;;;;;;;16.37;41.11;94670.50;4985507;28;20299;-84
2022/04/16 08:30:21;;;;;;;10.57;6.10;;;;;;;16.38;40.72;94663.44;4985789;28;20210;-83
2022/04/16 08:32:49;;;;;;;9.43;5.80;;;;;;;16.45;40.59;94650.88;4986142;28;20219;-85
2022/04/16 08:35:17;;;;;;;11.33;6.40;;;;;;;16.58;40.33;94660.16;4987533;28;20204;-81
2022/04/16 08:37:45;;;;;;;11.03;6.00;;;;;;;16.69;39.21;94659.16;4984403;28;20232;-84
2022/04/16 08:43:29;;;;;;;10.93;5.67;;;;;;;16.95;40.24;94650.34;4965151;28;20295;-83
2022/04/16 08:45:57;;;;;;;9.87;5.70;;;;;;;17.09;39.76;94640.94;4971510;28;20203;-86
2022/04/16 08:48:25;;;;;;;13.47;5.57;;;;;;;17.26;39.25;94641.53;4969665;28;20204;-84
2022/04/16 08:50:52;;;;;;;9.63;5.50;;;;;;;17.39;38.98;94642.88;4971462;28;20228;-85
2022/04/16 08:53:35;;;;;;;11.47;5.87;;;;;;;17.51;38.93;94638.97;4969891;28;20220;-84
2022/04/16 08:56:03;;;;;;;14.37;5.73;;;;;;;17.63;38.78;94633.50;4969672;28;20200;-85
2022/04/16 08:58:31;;;;;;;11.67;5.80;;;;;;;17.81;37.82;94625.06;4968371;28;20583;-86
2022/04/16 09:01:04;;;;;;;12.20;6.07;;;;;;;17.88;37.18;94625.59;4973460;28;20267;-83
2022/04/16 09:03:43;;;;;;;11.38;5.35;;;;;;;18.06;37.17;94617.19;4971348;28;21291;-85
2022/04/16 09:06:10;;;;;;;13.38;5.60;;;;;;;18.14;37.64;94619.28;4968416;28;20204;-86
2022/04/16 09:08:37;;;;;;;12.70;5.68;;;;;;;18.31;37.14;94616.34;4970483;28;20211;-84
2022/04/16 09:11:09;;;;;;;12.10;5.88;;;;;;;18.39;36.15;94615.78;4971164;28;20220;-85
2022/04/16 09:13:42;;;;;;;9.73;5.25;;;;;;;18.52;36.12;94610.00;4966577;28;20204;-85
2022/04/16 09:16:10;;;;;;;10.93;5.38;;;;;;;18.73;35.54;94617.84;4969689;28;20750;-84
2022/04/16 09:18:50;;;;;;;13.10;5.35;;;;;;;18.79;35.27;94612.25;4965698;28;20627;-85
2022/04/16 09:21:17;;;;;;;12.50;5.40;;;;;;;18.96;35.36;94618.00;4968817;28;20743;-85
2022/04/16 09:23:48;;;;;;;11.75;5.80;;;;;;;19.01;35.56;94607.44;4967361;28;20208;-86
2022/04/16 09:26:26;;;;;;;10.43;5.40;;;;;;;19.24;35.97;94604.16;4970790;28;20683;-85
2022/04/16 09:28:55;;;;;;;10.82;5.53;;;;;;;19.56;35.32;94610.84;4972036;28;20222;-84
2022/04/16 09:31:28;;;;;;;8.55;5.20;;;;;;;19.78;35.38;94603.28;4971234;28;20208;-84
2022/04/16 09:33:55;;;;;;;15.10;4.97;;;;;;;19.91;34.58;94588.69;4969477;28;20205;-85
2022/04/16 09:36:26;;;;;;;12.88;5.22;;;;;;;20.24;34.65;94606.31;4970094;28;20204;-84
2022/04/16 09:39:01;;;;;;;13.85;5.88;;;;;;;20.35;34.09;94599.88;4986211;28;20246;-86
2022/04/16 09:41:32;;;;;;;12.95;5.35;;;;;;;20.51;34.11;94587.31;4990016;28;20733;-88
2022/04/16 09:44:01;;;;;;;13.82;5.70;;;;;;;20.61;33.60;94595.91;4989228;28;20239;-86
2022/04/16 09:46:29;;;;;;;9.90;4.88;;;;;;;20.81;33.28;94589.59;4988169;28;20200;-88
2022/04/16 09:49:02;;;;;;;9.35;4.80;;;;;;;21.04;32.20;94580.84;4989136;28;20299;-87
2022/04/16 09:51:34;;;;;;;10.60;5.53;;;;;;;21.27;32.37;94590.59;4993058;28;20670;-88
2022/04/16 09:54:08;;;;;;;7.85;4.82;;;;;;;21.28;31.81;94584.25;4991015;28;20291;-87
2022/04/16 09:57:17;;;;;;;9.90;5.18;;;;;;;21.16;32.34;94597.09;4992811;28;20201;-89
2022/04/16 09:59:50;;;;;;;13.48;5.18;;;;;;;21.00;32.55;94595.72;4999095;28;20223;-90
2022/04/16 10:02:17;;;;;;;12.77;5.30;;;;;;;20.83;33.40;94584.84;4999812;28;20810;-91
2022/04/16 10:04:44;;;;;;;9.60;4.72;;;;;;;20.85;33.51;94585.34;4997608;28;20215;-88
2022/04/16 10:07:12;;;;;;;10.65;4.90;;;;;;;20.98;32.76;94587.25;4994399;28;20200;-89
2022/04/16 10:09:41;;;;;;;10.30;6.07;;;;;;;21.07;32.57;94587.44;4991324;28;20216;-87
2022/04/16 10:15:03;;;;;;;6.40;4.82;;;;;;;21.16;32.59;94568.03;4990201;28;20621;-78
2022/04/16 10:17:39;;;;;;;9.45;5.57;;;;;;;21.26;33.00;94570.53;4989448;28;20231;-85
2022/04/16 10:20:09;;;;;;;11.40;4.97;;;;;;;21.41;32.40;94572.19;4989056;28;20282;-84
2022/04/16 10:22:54;;;;;;;12.05;5.63;;;;;;;21.45;32.21;94567.88;4989393;28;20218;-85
2022/04/16 10:25:30;;;;;;;12.90;5.20;;;;;;;21.61;31.71;94569.25;4990877;28;20378;-85
2022/04/16 10:28:03;;;;;;;9.73;5.68;;;;;;;21.82;31.80;94577.59;4990964;28;20195;-84
2022/04/16 10:30:38;;;;;;;9.20;5.03;;;;;;;21.85;31.18;94574.38;4988970;28;20617;-73
2022/04/16 10:33:17;;;;;;;10.13;5.10;;;;;;;22.04;31.75;94568.03;4989751;28;20295;-85
2022/04/16 10:35:52;;;;;;;11.38;5.63;;;;;;;22.26;31.23;94567.34;4990818;28;20294;-85
2022/04/16 10:38:23;;;;;;;13.77;5.80;;;;;;;22.44;31.23;94563.84;4991828;28;20253;-85
2022/04/16 10:40:57;;;;;;;12.50;5.30;;;;;;;22.47;30.66;94555.31;4989766;28;20203;-85
2022/04/16 10:43:32;;;;;;;8.43;5.13;;;;;;;22.64;30.88;94560.06;4993086;28;20293;-87
2022/04/16 10:46:04;;;;;;;10.48;4.93;;;;;;;22.71;30.13;94571.06;4997567;28;20209;-89
2022/04/16 10:48:36;;;;;;;10.10;5.18;;;;;;;22.77;30.62;94569.84;4992843;28;20200;-86
2022/04/16 10:51:05;;;;;;;10.93;5.32;;;;;;;22.96;30.04;94559.13;4998183;28;20200;-86
2022/04/16 10:53:33;;;;;;;8.68;4.88;;;;;;;23.09;29.98;94559.09;4992490;28;20239;-84
2022/04/16 10:56:14;;;;;;;7.00;4.85;;;;;;;23.16;29.97;94556.84;4994826;28;20211;-84
2022/04/16 10:58:41;;;;;;;10.18;5.38;;;;;;;23.16;29.32;94556.06;4991987;28;20250;-85
2022/04/16 11:01:11;;;;;;;10.05;5.63;;;;;;;22.94;29.54;94551.47;4991589;28;20211;-88
2022/04/16 11:03:46;;;;;;;9.63;5.05;;;;;;;23.11;29.73;94553.53;4987751;28;20212;-89
2022/04/16 11:06:14;;;;;;;11.77;5.53;;;;;;;23.32;29.57;94554.63;4993697;28;20667;-87
2022/04/16 11:08:57;;;;;;;10.27;4.90;;;;;;;23.30;30.31;94546.19;4992574;28;20607;-87
2022/04/16 11:11:25;;;;;;;9.02;4.72;;;;;;;23.39;29.10;94552.38;4985845;28;20793;-85
2022/04/16 11:13:52;;;;;;;12.00;4.78;;;;;;;23.41;29.55;94558.16;4986283;28;20212;-85
2022/04/16 11:16:23;;;;;;;7.78;4.38;;;;;;;23.51;29.75;94543.88;4984569;28;20215;-84
2022/04/16 11:18:50;;;;;;;8.77;4.88;;;;;;;23.80;29.77;94549.56;4981671;28;20224;-84
2022/04/16 11:21:20;;;;;;;11.15;5.03;;;;;;;24.21;28.74;94541.38;4985968;28;20653;-82
2022/04/16 11:23:48;;;;;;;8.80;5.35;;;;;;;24.24;28.59;94535.47;4988364;28;20581;-85
2022/04/16 11:34:35;;;;;;;11.85;5.45;;;;;;;24.36;28.55;94533.00;4986492;28;20677;-81
2022/04/16 11:37:02;;;;;;;10.77;4.88;;;;;;;24.23;28.05;94531.22;4986231;28;20192;-83
2022/04/16 11:39:31;;;;;;;11.18;5.00;;;;;;;24.41;28.78;94532.88;4968456;28;20236;-83
2022/04/16 11:41:59;;;;;;;11.45;4.63;;;;;;;24.42;28.18;94525.66;4963489;28;20204;-84
2022/04/16 11:44:45;;;;;;;11.10;4.90;;;;;;;24.58;27.53;94524.16;4962161;28;20641;-88
2022/04/16 11:47:15;;;;;;;7.68;4.55;;;;;;;24.98;28.15;94514.28;4962233;28;20232;-85
2022/04/16 11:49:46;;;;;;;11.55;4.70;;;;;;;25.23;27.11;94519.63;4963095;28;20665;-84
2022/04/16 11:52:14;;;;;;;10.93;4.25;;;;;;;25.42;26.94;94514.75;4962888;28;20201;-84
2022/04/16 11:54:41;;;;;;;8.88;4.88;;;;;;;25.63;26.72;94522.13;4962335;28;20200;-82
2022/04/16 11:57:08;;;;;;;8.63;4.60;;;;;;;25.57;27.03;94510.09;4963276;28;20215;-83
2022/04/16 11:59:35;;;;;;;12.15;4.70;;;;;;;25.66;26.61;94508.97;4962209;28;20223;-80